Time,TemperatureF,DewpointF,PressureIn,WindDirection,WindDirectionDegrees,WindSpeedMPH,WindSpeedGustMPH,Humidity,HourlyPrecipIn,Conditions,Clouds,dailyrainin,SoftwareType,DateUTC
2013-05-15 03:11:00,61.2,56.0,30.16,WSW,248,1.0,0.0,83,0.00,,,0.00,WeatherTracker,2013-05-15 08:11:00,
2013-05-15 03:20:00,61.2,56.0,30.16,WSW,248,3.0,4.0,83,0.00,,,0.00,WeatherTracker,2013-05-15 08:20:00,
2013-05-15 03:25:00,61.1,55.9,30.16,WSW,248,2.0,3.0,83,0.00,,,0.00,WeatherTracker,2013-05-15 08:25:00,
2013-05-15 03:30:00,60.9,55.7,30.16,WSW,248,0.0,3.0,83,0.00,,,0.00,WeatherTracker,2013-05-15 08:30:00,
2013-05-15 03:35:00,60.8,55.9,30.16,WSW,248,0.0,3.0,84,0.00,,,0.00,WeatherTracker,2013-05-15 08:35:00,
2013-05-15 03:40:00,60.7,55.8,30.16,WSW,248,0.0,3.0,84,0.00,,,0.00,WeatherTracker,2013-05-15 08:40:00,
2013-05-15 03:50:00,60.4,55.9,30.16,WSW,248,2.0,2.0,85,0.00,,,0.00,WeatherTracker,2013-05-15 08:50:00,
2013-05-15 03:55:00,60.4,55.9,30.16,WSW,248,1.0,3.0,85,0.00,,,0.00,WeatherTracker,2013-05-15 08:55:00,
2013-05-15 04:00:00,60.3,55.8,30.16,WSW,248,1.0,3.0,85,0.00,,,0.00,WeatherTracker,2013-05-15 09:00:00,
2013-05-15 04:05:00,60.2,56.0,30.16,WSW,248,1.0,3.0,86,0.00,,,0.00,WeatherTracker,2013-05-15 09:05:00,
2013-05-15 04:15:00,60.0,55.8,30.16,WSW,248,1.0,2.0,86,0.00,,,0.00,WeatherTracker,2013-05-15 09:15:00,
2013-05-15 04:25:00,59.8,55.9,30.17,WSW,248,1.0,3.0,87,0.00,,,0.00,WeatherTracker,2013-05-15 09:25:00,
2013-05-15 04:30:00,59.8,55.9,30.17,WSW,248,1.0,3.0,87,0.00,,,0.00,WeatherTracker,2013-05-15 09:30:00,
2013-05-15 04:40:00,59.6,55.7,30.17,WSW,248,2.0,3.0,87,0.00,,,0.00,WeatherTracker,2013-05-15 09:40:00,
2013-05-15 04:45:00,59.5,55.9,30.17,WSW,248,0.0,3.0,88,0.00,,,0.00,WeatherTracker,2013-05-15 09:45:00,
2013-05-15 04:55:00,59.4,55.8,30.18,WSW,248,0.0,0.0,88,0.00,,,0.00,WeatherTracker,2013-05-15 09:55:00,
2013-05-15 05:00:00,59.4,55.8,30.18,WSW,248,0.0,0.0,88,0.00,,,0.00,WeatherTracker,2013-05-15 10:00:00,
2013-05-15 05:10:00,59.2,55.6,30.18,WSW,248,0.0,0.0,88,0.00,,,0.00,WeatherTracker,2013-05-15 10:10:00,
2013-05-15 05:20:00,59.1,55.9,30.18,WSW,248,0.0,0.0,89,0.00,,,0.00,WeatherTracker,2013-05-15 10:20:00,
2013-05-15 05:25:00,59.0,55.8,30.18,WSW,248,0.0,0.0,89,0.00,,,0.00,WeatherTracker,2013-05-15 10:25:00,
2013-05-15 05:30:00,58.8,55.6,30.18,WSW,248,0.0,0.0,89,0.00,,,0.00,WeatherTracker,2013-05-15 10:30:00,
2013-05-15 05:35:00,58.6,55.4,30.18,WSW,248,0.0,0.0,89,0.00,,,0.00,WeatherTracker,2013-05-15 10:35:00,
2013-05-15 05:45:00,58.5,55.6,30.19,WSW,248,0.0,0.0,90,0.00,,,0.00,WeatherTracker,2013-05-15 10:45:00,
2013-05-15 05:50:00,58.4,55.5,30.19,WSW,248,0.0,0.0,90,0.00,,,0.00,WeatherTracker,2013-05-15 10:50:00,
2013-05-15 05:55:00,58.4,55.8,30.19,WSW,248,1.0,3.0,91,0.00,,,0.00,WeatherTracker,2013-05-15 10:55:00,
2013-05-15 06:05:00,58.6,56.0,30.20,West,270,0.0,3.0,91,0.00,,,0.00,WeatherTracker,2013-05-15 11:05:00,
2013-05-15 06:15:00,58.9,56.6,30.20,West,270,0.0,0.0,92,0.00,,,0.00,WeatherTracker,2013-05-15 11:15:00,
2013-05-15 06:25:00,59.2,56.9,30.20,West,270,1.0,3.0,92,0.00,,,0.00,WeatherTracker,2013-05-15 11:25:00,
2013-05-15 06:30:00,59.4,57.1,30.20,West,267,1.0,3.0,92,0.00,,,0.00,WeatherTracker,2013-05-15 11:30:00,
2013-05-15 06:40:00,60.0,57.7,30.20,West,267,0.0,3.0,92,0.00,,,0.00,WeatherTracker,2013-05-15 11:40:00,
2013-05-15 06:50:00,60.7,58.4,30.20,West,267,0.0,3.0,92,0.00,,,0.00,WeatherTracker,2013-05-15 11:50:00,
2013-05-15 06:55:00,61.1,58.8,30.20,West,279,2.0,4.0,92,0.00,,,0.00,WeatherTracker,2013-05-15 11:55:00,
2013-05-15 07:00:00,61.5,58.8,30.20,WNW,294,2.0,4.0,91,0.00,,,0.00,WeatherTracker,2013-05-15 12:00:00,
2013-05-15 07:10:00,62.5,59.2,30.20,West,278,2.0,4.0,89,0.00,,,0.00,WeatherTracker,2013-05-15 12:10:00,
2013-05-15 07:20:00,63.4,59.8,30.20,West,259,2.0,5.0,88,0.00,,,0.00,WeatherTracker,2013-05-15 12:20:00,
2013-05-15 07:25:00,63.9,60.0,30.20,West,262,2.0,5.0,87,0.00,,,0.00,WeatherTracker,2013-05-15 12:25:00,
2013-05-15 07:30:00,64.3,60.0,30.20,WNW,291,3.0,5.0,86,0.00,,,0.00,WeatherTracker,2013-05-15 12:30:00,
2013-05-15 07:35:00,64.9,60.3,30.20,WNW,284,4.0,5.0,85,0.00,,,0.00,WeatherTracker,2013-05-15 12:35:00,
2013-05-15 07:45:00,65.9,60.6,30.20,West,269,3.0,6.0,83,0.00,,,0.00,WeatherTracker,2013-05-15 12:45:00,
2013-05-15 07:50:00,66.6,60.6,30.20,NW,311,5.0,6.0,81,0.00,,,0.00,WeatherTracker,2013-05-15 12:50:00,
2013-05-15 07:55:00,67.3,60.9,30.20,WNW,286,4.0,5.0,80,0.00,,,0.00,WeatherTracker,2013-05-15 12:55:00,
2013-05-15 08:05:00,68.2,60.3,30.21,WSW,252,4.0,6.0,76,0.00,,,0.00,WeatherTracker,2013-05-15 13:05:00,
2013-05-15 08:15:00,69.2,60.9,30.21,WNW,286,6.0,6.0,75,0.00,,,0.00,WeatherTracker,2013-05-15 13:15:00,
2013-05-15 08:25:00,70.3,61.6,30.21,WNW,298,5.0,7.0,74,0.00,,,0.00,WeatherTracker,2013-05-15 13:25:00,
2013-05-15 08:30:00,70.6,61.1,30.21,West,272,5.0,9.0,72,0.00,,,0.00,WeatherTracker,2013-05-15 13:30:00,
2013-05-15 08:41:00,71.8,61.1,30.21,WNW,288,4.0,9.0,69,0.00,,,0.00,WeatherTracker,2013-05-15 13:41:00,
2013-05-15 08:50:00,73.2,61.6,30.21,WNW,300,1.0,6.0,67,0.00,,,0.00,WeatherTracker,2013-05-15 13:50:00,
2013-05-15 09:00:00,74.0,60.6,30.21,NW,304,4.0,8.0,63,0.00,,,0.00,WeatherTracker,2013-05-15 14:00:00,
2013-05-15 09:10:00,74.6,59.8,30.21,West,277,4.0,8.0,60,0.00,,,0.00,WeatherTracker,2013-05-15 14:10:00,
2013-05-15 09:15:00,75.0,60.2,30.21,West,261,4.0,8.0,60,0.00,,,0.00,WeatherTracker,2013-05-15 14:15:00,
2013-05-15 09:25:00,75.5,60.2,30.20,WNW,289,4.0,8.0,59,0.00,,,0.00,WeatherTracker,2013-05-15 14:25:00,
2013-05-15 09:30:00,76.2,59.3,30.20,WNW,300,6.0,9.0,56,0.00,,,0.00,WeatherTracker,2013-05-15 14:30:00,
2013-05-15 09:35:00,76.4,59.0,30.20,WNW,284,5.0,9.0,55,0.00,,,0.00,WeatherTracker,2013-05-15 14:35:00,
2013-05-15 09:45:00,76.8,58.4,30.20,West,276,3.0,9.0,53,0.00,,,0.00,WeatherTracker,2013-05-15 14:45:00,
2013-05-15 09:50:00,77.2,60.3,30.20,WNW,286,2.0,10.0,56,0.00,,,0.00,WeatherTracker,2013-05-15 14:50:00,
2013-05-15 10:00:00,77.5,59.0,30.20,NW,319,6.0,8.0,53,0.00,,,0.00,WeatherTracker,2013-05-15 15:00:00,
2013-05-15 10:10:00,78.2,59.6,30.20,NNW,334,5.0,8.0,53,0.00,,,0.00,WeatherTracker,2013-05-15 15:10:00,
2013-05-15 10:15:00,78.3,59.7,30.20,NNW,348,2.0,8.0,53,0.00,,,0.00,WeatherTracker,2013-05-15 15:15:00,
2013-05-15 10:20:00,78.3,59.2,30.20,WNW,298,3.0,8.0,52,0.00,,,0.00,WeatherTracker,2013-05-15 15:20:00,
2013-05-15 10:30:00,79.1,60.5,30.20,NNW,336,3.0,6.0,53,0.00,,,0.00,WeatherTracker,2013-05-15 15:30:00,
2013-05-15 10:40:00,79.7,59.9,30.21,NNW,346,4.0,8.0,51,0.00,,,0.00,WeatherTracker,2013-05-15 15:40:00,
2013-05-15 10:50:00,80.0,60.8,30.20,NNW,331,3.0,7.0,52,0.00,,,0.00,WeatherTracker,2013-05-15 15:50:00,
2013-05-15 11:00:00,80.4,61.1,30.20,West,274,7.0,8.0,52,0.00,,,0.00,WeatherTracker,2013-05-15 16:00:00,
2013-05-15 11:10:00,81.1,59.5,30.20,WNW,300,4.0,9.0,48,0.00,,,0.00,WeatherTracker,2013-05-15 16:10:00,
2013-05-15 11:15:00,81.5,61.0,30.20,West,273,3.0,7.0,50,0.00,,,0.00,WeatherTracker,2013-05-15 16:15:00,
2013-05-15 11:20:00,81.5,60.5,30.20,WNW,298,3.0,7.0,49,0.00,,,0.00,WeatherTracker,2013-05-15 16:20:00,
2013-05-15 11:25:00,81.3,60.9,30.20,WNW,288,4.0,7.0,50,0.00,,,0.00,WeatherTracker,2013-05-15 16:25:00,
2013-05-15 11:35:00,82.4,61.3,30.19,West,259,6.0,10.0,49,0.00,,,0.00,WeatherTracker,2013-05-15 16:35:00,
2013-05-15 11:40:00,82.4,61.9,30.19,West,268,4.0,10.0,50,0.00,,,0.00,WeatherTracker,2013-05-15 16:40:00,
2013-05-15 11:50:00,82.7,63.3,30.18,WSW,242,3.0,8.0,52,0.00,,,0.00,WeatherTracker,2013-05-15 16:50:00,
2013-05-15 11:55:00,83.3,62.7,30.18,SW,215,4.0,8.0,50,0.00,,,0.00,WeatherTracker,2013-05-15 16:55:00,
2013-05-15 12:05:00,83.2,61.4,30.17,WNW,298,3.0,7.0,48,0.00,,,0.00,WeatherTracker,2013-05-15 17:05:00,
2013-05-15 12:10:00,83.2,60.2,30.17,NNW,331,1.0,7.0,46,0.00,,,0.00,WeatherTracker,2013-05-15 17:10:00,
2013-05-15 12:15:00,82.8,60.5,30.17,NW,317,5.0,8.0,47,0.00,,,0.00,WeatherTracker,2013-05-15 17:15:00,
2013-05-15 12:25:00,82.9,60.6,30.16,NNW,343,1.0,8.0,47,0.00,,,0.00,WeatherTracker,2013-05-15 17:25:00,
2013-05-15 12:35:00,83.3,61.5,30.16,NW,319,7.0,7.0,48,0.00,,,0.00,WeatherTracker,2013-05-15 17:35:00,
2013-05-15 12:40:00,84.1,62.3,30.16,NNW,327,4.0,11.0,48,0.00,,,0.00,WeatherTracker,2013-05-15 17:40:00,
2013-05-15 12:45:00,84.1,62.3,30.15,NNE,14,6.0,11.0,48,0.00,,,0.00,WeatherTracker,2013-05-15 17:45:00,
2013-05-15 12:50:00,84.1,61.7,30.15,WNW,294,2.0,9.0,47,0.00,,,0.00,WeatherTracker,2013-05-15 17:50:00,
2013-05-15 13:05:00,83.5,59.9,30.14,NNE,21,2.0,7.0,45,0.00,,,0.00,WeatherTracker,2013-05-15 18:05:00,
2013-05-15 13:10:00,83.5,61.1,30.14,NNW,336,4.0,5.0,47,0.00,,,0.00,WeatherTracker,2013-05-15 18:10:00,
2013-05-15 13:15:00,83.9,60.9,30.14,West,281,1.0,4.0,46,0.00,,,0.00,WeatherTracker,2013-05-15 18:15:00,
2013-05-15 13:25:00,84.5,60.8,30.13,NNW,344,0.0,6.0,45,0.00,,,0.00,WeatherTracker,2013-05-15 18:25:00,
2013-05-15 13:35:00,84.8,60.4,30.13,ESE,115,4.0,7.0,44,0.00,,,0.00,WeatherTracker,2013-05-15 18:35:00,
2013-05-15 13:45:00,84.6,62.1,30.13,SE,126,0.0,5.0,47,0.00,,,0.00,WeatherTracker,2013-05-15 18:45:00,
2013-05-15 13:55:00,85.4,61.6,30.12,West,259,3.0,5.0,45,0.00,,,0.00,WeatherTracker,2013-05-15 18:55:00,
2013-05-15 14:00:00,86.2,63.6,30.12,WSW,258,3.0,6.0,47,0.00,,,0.00,WeatherTracker,2013-05-15 19:00:00,
2013-05-15 14:05:00,86.5,61.3,30.12,SW,223,3.0,8.0,43,0.00,,,0.00,WeatherTracker,2013-05-15 19:05:00,
2013-05-15 14:15:00,86.6,61.4,30.11,WSW,238,3.0,6.0,43,0.00,,,0.00,WeatherTracker,2013-05-15 19:15:00,
2013-05-15 14:30:00,86.2,61.7,30.11,NW,307,3.0,11.0,44,0.00,,,0.00,WeatherTracker,2013-05-15 19:30:00,
2013-05-15 14:40:00,86.8,61.6,30.10,WNW,298,4.0,11.0,43,0.00,,,0.00,WeatherTracker,2013-05-15 19:40:00,
2013-05-15 14:50:00,86.9,61.7,30.09,South,190,4.0,7.0,43,0.00,,,0.00,WeatherTracker,2013-05-15 19:50:00,
2013-05-15 14:55:00,86.6,60.1,30.09,West,259,1.0,7.0,41,0.00,,,0.00,WeatherTracker,2013-05-15 19:55:00,
2013-05-15 15:05:00,86.3,60.5,30.09,WSW,246,1.0,9.0,42,0.00,,,0.00,WeatherTracker,2013-05-15 20:05:00,
2013-05-15 15:10:00,86.0,60.2,30.09,WSW,246,0.0,9.0,42,0.00,,,0.00,WeatherTracker,2013-05-15 20:10:00,
2013-05-15 15:15:00,86.2,60.4,30.09,ESE,123,1.0,3.0,42,0.00,,,0.00,WeatherTracker,2013-05-15 20:15:00,
2013-05-15 15:20:00,86.6,60.7,30.08,SW,223,3.0,8.0,42,0.00,,,0.00,WeatherTracker,2013-05-15 20:20:00,
2013-05-15 15:30:00,86.5,60.0,30.08,SSE,161,1.0,9.0,41,0.00,,,0.00,WeatherTracker,2013-05-15 20:30:00,
2013-05-15 15:40:00,86.9,60.3,30.08,WNW,284,5.0,9.0,41,0.00,,,0.00,WeatherTracker,2013-05-15 20:40:00,
2013-05-15 15:51:00,87.5,60.2,30.08,SW,226,6.0,7.0,40,0.00,,,0.00,WeatherTracker,2013-05-15 20:51:00,
2013-05-15 16:00:00,87.6,60.3,30.07,WSW,248,4.0,7.0,40,0.00,,,0.00,WeatherTracker,2013-05-15 21:00:00,
2013-05-15 16:05:00,87.3,59.3,30.07,SSW,202,4.0,9.0,39,0.00,,,0.00,WeatherTracker,2013-05-15 21:05:00,
2013-05-15 16:10:00,87.0,59.7,30.07,WSW,254,3.0,9.0,40,0.00,,,0.00,WeatherTracker,2013-05-15 21:10:00,
2013-05-15 16:15:00,87.0,61.1,30.07,SW,222,5.0,6.0,42,0.00,,,0.00,WeatherTracker,2013-05-15 21:15:00,
2013-05-15 16:20:00,86.9,58.9,30.07,West,264,4.0,8.0,39,0.00,,,0.00,WeatherTracker,2013-05-15 21:20:00,
2013-05-15 16:30:00,86.3,57.7,30.07,SW,232,3.0,8.0,38,0.00,,,0.00,WeatherTracker,2013-05-15 21:30:00,
2013-05-15 16:35:00,86.4,57.8,30.07,West,272,3.0,8.0,38,0.00,,,0.00,WeatherTracker,2013-05-15 21:35:00,
2013-05-15 16:40:00,86.4,58.5,30.06,WSW,250,4.0,9.0,39,0.00,,,0.00,WeatherTracker,2013-05-15 21:40:00,
2013-05-15 16:45:00,86.3,58.4,30.06,WNW,288,3.0,9.0,39,0.00,,,0.00,WeatherTracker,2013-05-15 21:45:00,
2013-05-15 17:00:00,86.4,60.6,30.05,WNW,283,6.0,6.0,42,0.00,,,0.00,WeatherTracker,2013-05-15 22:00:00,
2013-05-15 17:10:00,86.2,59.7,30.05,SW,215,4.0,7.0,41,0.00,,,0.00,WeatherTracker,2013-05-15 22:10:00,
2013-05-15 17:20:00,85.9,60.1,30.05,SSW,213,2.0,6.0,42,0.00,,,0.00,WeatherTracker,2013-05-15 22:20:00,
2013-05-15 17:30:00,85.7,60.6,30.05,SSW,202,4.0,7.0,43,0.00,,,0.00,WeatherTracker,2013-05-15 22:30:00,
2013-05-15 17:35:00,85.5,59.8,30.05,WSW,248,3.0,5.0,42,0.00,,,0.00,WeatherTracker,2013-05-15 22:35:00,
2013-05-15 17:40:00,85.4,59.7,30.05,SW,220,0.0,5.0,42,0.00,,,0.00,WeatherTracker,2013-05-15 22:40:00,
2013-05-15 17:45:00,85.2,60.1,30.05,SW,227,4.0,6.0,43,0.00,,,0.00,WeatherTracker,2013-05-15 22:45:00,
2013-05-15 17:50:00,85.0,58.6,30.05,SW,227,2.0,6.0,41,0.00,,,0.00,WeatherTracker,2013-05-15 22:50:00,
2013-05-15 18:00:00,85.1,59.4,30.04,SW,215,4.0,6.0,42,0.00,,,0.00,WeatherTracker,2013-05-15 23:00:00,
2013-05-15 18:10:00,85.0,58.6,30.04,South,190,2.0,6.0,41,0.00,,,0.00,WeatherTracker,2013-05-15 23:10:00,
2013-05-15 18:25:00,84.4,59.4,30.04,SSW,194,2.0,4.0,43,0.00,,,0.00,WeatherTracker,2013-05-15 23:25:00,
2013-05-15 18:30:00,84.1,59.8,30.04,SSW,193,0.0,3.0,44,0.00,,,0.00,WeatherTracker,2013-05-15 23:30:00,
2013-05-15 18:35:00,83.9,60.3,30.04,SSW,193,1.0,3.0,45,0.00,,,0.00,WeatherTracker,2013-05-15 23:35:00,
2013-05-15 18:45:00,83.2,60.8,30.04,SSW,193,0.0,2.0,47,0.00,,,0.00,WeatherTracker,2013-05-15 23:45:00,
2013-05-15 18:55:00,82.4,60.7,30.04,SSW,193,0.0,3.0,48,0.00,,,0.00,WeatherTracker,2013-05-15 23:55:00,
2013-05-15 19:00:00,82.0,61.5,30.04,SSW,193,0.0,0.0,50,0.00,,,0.00,WeatherTracker,2013-05-16 00:00:00,
2013-05-15 19:15:00,80.5,61.2,30.04,SSW,193,0.0,1.0,52,0.00,,,0.00,WeatherTracker,2013-05-16 00:15:00,
2013-05-15 19:20:00,79.7,61.0,30.04,SSW,196,2.0,10.0,53,0.00,,,0.00,WeatherTracker,2013-05-16 00:20:00,
2013-05-15 19:25:00,78.9,59.8,30.04,SSW,197,2.0,10.0,52,0.00,,,0.00,WeatherTracker,2013-05-16 00:25:00,
2013-05-15 19:35:00,77.9,59.4,30.05,SW,223,3.0,5.0,53,0.00,,,0.00,WeatherTracker,2013-05-16 00:35:00,
2013-05-15 19:45:00,77.0,59.1,30.05,SW,215,2.0,5.0,54,0.00,,,0.00,WeatherTracker,2013-05-16 00:45:00,
2013-05-15 19:50:00,76.6,58.7,30.05,SW,222,4.0,5.0,54,0.00,,,0.00,WeatherTracker,2013-05-16 00:50:00,
2013-05-15 19:55:00,76.2,58.3,30.05,SSW,194,5.0,5.0,54,0.00,,,0.00,WeatherTracker,2013-05-16 00:55:00,
2013-05-15 20:05:00,75.5,57.7,30.05,SSW,205,3.0,7.0,54,0.00,,,0.00,WeatherTracker,2013-05-16 01:05:00,
2013-05-15 20:20:00,74.7,57.4,30.05,SSW,204,2.0,6.0,55,0.00,,,0.00,WeatherTracker,2013-05-16 01:20:00,
2013-05-15 20:25:00,74.4,57.2,30.05,South,190,4.0,7.0,55,0.00,,,0.00,WeatherTracker,2013-05-16 01:25:00,
2013-05-15 20:35:00,73.9,56.7,30.06,SSW,196,2.0,7.0,55,0.00,,,0.00,WeatherTracker,2013-05-16 01:35:00,
2013-05-15 20:40:00,73.7,57.0,30.05,SSW,195,1.0,5.0,56,0.00,,,0.00,WeatherTracker,2013-05-16 01:40:00,
2013-05-15 20:50:00,73.3,56.6,30.06,South,191,2.0,5.0,56,0.00,,,0.00,WeatherTracker,2013-05-16 01:50:00,
2013-05-15 21:00:00,72.9,56.3,30.06,SSW,198,1.0,7.0,56,0.00,,,0.00,WeatherTracker,2013-05-16 02:00:00,
2013-05-15 21:05:00,72.8,56.7,30.07,SSW,196,2.0,6.0,57,0.00,,,0.00,WeatherTracker,2013-05-16 02:05:00,
2013-05-15 21:20:00,72.2,56.1,30.06,SW,217,2.0,6.0,57,0.00,,,0.00,WeatherTracker,2013-05-16 02:20:00,
2013-05-15 21:26:00,72.0,55.9,30.07,South,185,0.0,6.0,57,0.00,,,0.00,WeatherTracker,2013-05-16 02:26:00,
2013-05-15 21:35:00,71.8,55.2,30.07,SSW,202,2.0,6.0,56,0.00,,,0.00,WeatherTracker,2013-05-16 02:35:00,
2013-05-15 21:40:00,71.6,55.5,30.07,SSW,213,3.0,6.0,57,0.00,,,0.00,WeatherTracker,2013-05-16 02:40:00,
2013-05-15 21:51:00,71.2,55.2,30.07,SSW,193,2.0,6.0,57,0.00,,,0.00,WeatherTracker,2013-05-16 02:51:00,
2013-05-15 22:00:00,71.0,55.0,30.07,SW,227,2.0,5.0,57,0.00,,,0.00,WeatherTracker,2013-05-16 03:00:00,
2013-05-15 22:10:00,70.6,55.1,30.06,South,175,2.0,7.0,58,0.00,,,0.00,WeatherTracker,2013-05-16 03:10:00,
2013-05-15 22:15:00,70.4,54.9,30.06,SSE,153,4.0,7.0,58,0.00,,,0.00,WeatherTracker,2013-05-16 03:15:00,
2013-05-15 22:20:00,70.1,55.1,30.06,SSW,196,3.0,8.0,59,0.00,,,0.00,WeatherTracker,2013-05-16 03:20:00,
2013-05-15 22:25:00,70.0,55.0,30.07,SSW,206,4.0,8.0,59,0.00,,,0.00,WeatherTracker,2013-05-16 03:25:00,
2013-05-15 22:35:00,69.7,54.3,30.07,SSW,193,2.0,7.0,58,0.00,,,0.00,WeatherTracker,2013-05-16 03:35:00,
2013-05-15 22:45:00,69.4,54.0,30.07,SSW,201,2.0,6.0,58,0.00,,,0.00,WeatherTracker,2013-05-16 03:45:00,
2013-05-15 22:55:00,69.2,53.3,30.06,SSW,205,5.0,7.0,57,0.00,,,0.00,WeatherTracker,2013-05-16 03:55:00,
2013-05-15 23:00:00,69.1,53.2,30.06,South,189,3.0,6.0,57,0.00,,,0.00,WeatherTracker,2013-05-16 04:00:00,
2013-05-15 23:05:00,69.0,53.1,30.06,SSW,192,4.0,6.0,57,0.00,,,0.00,WeatherTracker,2013-05-16 04:05:00,
2013-05-15 23:15:00,68.8,52.9,30.06,SSW,207,1.0,6.0,57,0.00,,,0.00,WeatherTracker,2013-05-16 04:15:00,
2013-05-15 23:20:00,68.7,53.3,30.06,SSW,202,2.0,4.0,58,0.00,,,0.00,WeatherTracker,2013-05-16 04:20:00,
2013-05-15 23:30:00,68.4,53.5,30.06,SSW,200,2.0,4.0,59,0.00,,,0.00,WeatherTracker,2013-05-16 04:30:00,
2013-05-15 23:35:00,68.3,53.9,30.06,SSW,192,1.0,4.0,60,0.00,,,0.00,WeatherTracker,2013-05-16 04:35:00,
2013-05-15 23:40:00,68.1,54.1,30.05,SSW,192,2.0,4.0,61,0.00,,,0.00,WeatherTracker,2013-05-16 04:40:00,
2013-05-15 23:45:00,68.0,54.5,30.05,South,182,1.0,4.0,62,0.00,,,0.00,WeatherTracker,2013-05-16 04:45:00,
2013-05-15 23:50:00,67.8,54.7,30.05,SSE,167,0.0,5.0,63,0.00,,,0.00,WeatherTracker,2013-05-16 04:50:00,